createdAt,value
2022-12-08T00:00:18.591Z,31.57
2022-12-08T00:02:47.704Z,47.13
2022-12-08T00:05:36.037Z,23.13
2022-12-08T00:08:24.216Z,23.40
2022-12-08T00:10:53.373Z,19.03
2022-12-08T00:13:22.423Z,14.43
2022-12-08T00:15:51.733Z,24.30
2022-12-08T00:18:20.686Z,20.70
2022-12-08T00:20:56.835Z,31.50
2022-12-08T00:23:26.443Z,21.10
2022-12-08T00:25:55.468Z,21.00
2022-12-08T00:28:24.798Z,16.20
2022-12-08T00:30:54.217Z,12.63
2022-12-08T00:33:23.304Z,31.27
2022-12-08T00:35:52.352Z,18.93
2022-12-08T00:38:21.373Z,24.63
2022-12-08T00:40:50.376Z,26.93
2022-12-08T00:43:19.976Z,33.30
2022-12-08T00:45:49.793Z,21.77
2022-12-08T00:48:18.978Z,37.47
2022-12-08T00:50:49.050Z,61.30
2022-12-08T00:53:18.785Z,53.73
2022-12-08T00:55:47.998Z,68.53
2022-12-08T00:58:17.791Z,55.50
2022-12-08T01:00:47.532Z,57.57
2022-12-08T01:03:16.736Z,62.13
2022-12-08T01:05:46.071Z,60.30
2022-12-08T01:08:19.370Z,49.90
2022-12-08T01:10:49.659Z,70.47
2022-12-08T01:13:19.224Z,68.40
2022-12-08T01:15:48.303Z,75.17
2022-12-08T01:18:18.046Z,45.50
2022-12-08T01:20:47.940Z,50.77
2022-12-08T01:23:17.552Z,38.97
2022-12-08T01:25:46.788Z,65.70
2022-12-08T01:28:16.232Z,38.57
2022-12-08T01:30:45.918Z,68.10
2022-12-08T01:33:15.977Z,45.37
2022-12-08T01:35:48.318Z,23.67
2022-12-08T01:38:17.850Z,25.80
2022-12-08T01:40:47.562Z,37.30
2022-12-08T01:43:20.835Z,33.87
2022-12-08T01:45:50.125Z,18.47
2022-12-08T01:48:21.364Z,42.37
2022-12-08T01:50:50.699Z,43.80
2022-12-08T01:53:21.420Z,30.70
2022-12-08T01:56:10.682Z,34.70
2022-12-08T01:58:41.556Z,20.10
2022-12-08T02:01:11.357Z,60.47
2022-12-08T02:03:50.767Z,53.90
2022-12-08T02:06:20.295Z,49.57
2022-12-08T02:08:50.438Z,39.77
2022-12-08T02:11:19.977Z,52.37
2022-12-08T02:13:49.729Z,40.47
2022-12-08T02:16:19.470Z,66.33
2022-12-08T02:19:28.577Z,27.80
2022-12-08T02:24:19.490Z,16.67
2022-12-08T02:26:51.557Z,32.75
2022-12-08T02:29:33.314Z,29.73
2022-12-08T02:32:24.919Z,38.47
2022-12-08T02:35:02.045Z,41.93
2022-12-08T02:37:36.394Z,42.57
2022-12-08T02:40:15.103Z,84.63
2022-12-08T02:43:02.914Z,59.67
2022-12-08T02:45:40.170Z,45.43
2022-12-08T02:48:10.626Z,34.30
2022-12-08T02:50:39.740Z,26.43
2022-12-08T02:55:48.261Z,41.43
2022-12-08T02:58:47.155Z,27.70
2022-12-08T03:01:21.299Z,81.23
2022-12-08T03:03:54.220Z,38.03
2022-12-08T03:06:38.872Z,37.27
2022-12-08T03:09:08.402Z,29.53
2022-12-08T03:11:52.169Z,21.83
2022-12-08T03:14:21.157Z,46.93
2022-12-08T03:17:04.069Z,24.73
2022-12-08T03:19:35.514Z,38.07
2022-12-08T03:22:05.333Z,36.43
2022-12-08T03:24:42.403Z,27.93
2022-12-08T03:27:38.898Z,43.87
2022-12-08T03:30:09.070Z,39.83
2022-12-08T03:32:38.705Z,54.43
2022-12-08T03:35:10.159Z,31.50
2022-12-08T03:37:39.612Z,53.13
2022-12-08T03:40:09.819Z,35.60
2022-12-08T03:42:39.290Z,34.40
2022-12-08T03:45:08.651Z,55.47
2022-12-08T03:47:37.932Z,59.33
2022-12-08T03:50:08.257Z,45.43
2022-12-08T03:52:37.457Z,28.50
2022-12-08T03:55:07.127Z,18.63
2022-12-08T03:57:36.130Z,45.03
2022-12-08T04:00:06.315Z,46.50
2022-12-08T04:02:36.087Z,53.90
2022-12-08T04:05:05.693Z,47.20
2022-12-08T04:07:34.779Z,35.80
2022-12-08T04:10:04.075Z,28.60
2022-12-08T04:12:33.289Z,75.80
2022-12-08T04:15:02.279Z,46.80
2022-12-08T04:17:32.399Z,62.90
2022-12-08T04:20:02.390Z,64.10
2022-12-08T04:22:32.092Z,48.35
2022-12-08T04:25:01.552Z,64.40
2022-12-08T04:27:30.615Z,68.80
2022-12-08T04:30:01.644Z,67.15
2022-12-08T04:32:31.004Z,60.10
2022-12-08T04:35:00.065Z,54.33
2022-12-08T04:37:30.530Z,56.50
2022-12-08T04:40:04.287Z,87.30
2022-12-08T04:42:43.815Z,50.00
2022-12-08T04:45:12.983Z,58.47
2022-12-08T04:47:44.951Z,79.97
2022-12-08T04:50:14.241Z,79.72
2022-12-08T04:52:43.743Z,64.90
2022-12-08T04:55:13.304Z,65.43
2022-12-08T04:57:42.404Z,74.45
2022-12-08T05:00:13.994Z,81.88
2022-12-08T05:02:43.866Z,91.45
2022-12-08T05:05:13.536Z,98.68
2022-12-08T05:07:43.216Z,119.10
2022-12-08T05:10:12.803Z,110.03
2022-12-08T05:12:41.927Z,132.30
2022-12-08T05:15:11.149Z,164.18
2022-12-08T05:17:41.294Z,135.45
2022-12-08T05:20:10.886Z,166.82
2022-12-08T05:22:39.856Z,179.57
2022-12-08T05:25:09.677Z,169.57
2022-12-08T05:27:39.441Z,158.32
2022-12-08T05:30:08.783Z,187.57
2022-12-08T05:32:38.381Z,171.15
2022-12-08T05:35:07.608Z,174.57
2022-12-08T05:37:37.088Z,180.85
2022-12-08T05:40:10.469Z,169.93
2022-12-08T05:42:40.045Z,148.20
2022-12-08T05:45:09.578Z,124.68
2022-12-08T05:47:39.286Z,148.70
2022-12-08T05:50:08.597Z,134.23
2022-12-08T05:52:37.592Z,120.18
2022-12-08T05:55:06.862Z,105.75
2022-12-08T05:57:36.689Z,92.30
2022-12-08T06:00:06.757Z,85.78
2022-12-08T06:02:40.954Z,87.35
2022-12-08T06:05:11.342Z,97.10
2022-12-08T06:07:42.228Z,89.82
2022-12-08T06:10:12.111Z,98.80
2022-12-08T06:12:41.753Z,95.55
2022-12-08T06:15:11.043Z,94.35
2022-12-08T06:17:40.577Z,86.57
2022-12-08T06:20:09.790Z,95.72
2022-12-08T06:22:38.850Z,106.80
2022-12-08T06:25:10.090Z,124.78
2022-12-08T06:27:39.814Z,107.13
2022-12-08T06:30:09.580Z,104.53
2022-12-08T06:32:38.701Z,103.68
2022-12-08T06:35:08.329Z,110.68
2022-12-08T06:37:37.913Z,105.90
2022-12-08T06:40:07.878Z,100.68
2022-12-08T06:42:47.670Z,98.50
2022-12-08T06:45:17.056Z,100.85
2022-12-08T06:47:47.567Z,98.28
2022-12-08T06:50:16.780Z,98.40
2022-12-08T06:53:00.778Z,92.07
2022-12-08T06:58:23.827Z,86.50
2022-12-08T07:00:52.914Z,103.70
2022-12-08T07:03:21.880Z,92.93
2022-12-08T07:05:51.484Z,81.47
2022-12-08T07:08:20.620Z,88.10
2022-12-08T07:10:49.687Z,96.20
2022-12-08T07:13:18.726Z,80.57
2022-12-08T07:15:48.243Z,86.95
2022-12-08T07:18:18.134Z,82.95
2022-12-08T07:20:47.243Z,76.35
2022-12-08T07:23:16.284Z,67.97
2022-12-08T07:25:45.376Z,62.83
2022-12-08T07:28:14.440Z,62.60
2022-12-08T07:30:43.744Z,49.28
2022-12-08T07:33:13.220Z,58.47
2022-12-08T07:35:48.911Z,52.97
2022-12-08T07:38:18.723Z,56.17
2022-12-08T07:40:48.240Z,52.47
2022-12-08T07:43:17.445Z,45.60
2022-12-08T07:45:46.627Z,59.88
2022-12-08T07:48:16.979Z,67.18
2022-12-08T07:50:46.403Z,46.90
2022-12-08T07:53:15.751Z,60.20
2022-12-08T07:55:45.389Z,46.60
2022-12-08T07:58:14.927Z,42.00
2022-12-08T08:00:44.137Z,42.55
2022-12-08T08:03:13.386Z,29.02
2022-12-08T08:05:42.816Z,45.92
2022-12-08T08:08:12.867Z,37.15
2022-12-08T08:10:42.483Z,40.65
2022-12-08T08:13:12.345Z,38.13
2022-12-08T08:15:42.210Z,39.05
2022-12-08T08:18:11.821Z,45.15
2022-12-08T08:20:40.996Z,41.13
2022-12-08T08:23:10.802Z,32.95
2022-12-08T08:25:40.958Z,25.05
2022-12-08T08:28:10.531Z,29.45
2022-12-08T08:30:40.434Z,33.10
2022-12-08T08:33:10.077Z,29.88
2022-12-08T08:35:47.110Z,30.13
2022-12-08T08:38:19.955Z,27.75
2022-12-08T08:40:52.160Z,22.23
2022-12-08T08:43:37.571Z,29.80
2022-12-08T08:46:08.284Z,14.85
2022-12-08T08:48:40.835Z,21.15
2022-12-08T08:51:10.766Z,16.02
2022-12-08T08:53:40.298Z,9.77
2022-12-08T08:56:13.706Z,18.67
2022-12-08T08:58:43.733Z,12.70
2022-12-08T09:01:26.784Z,19.48
2022-12-08T09:03:56.711Z,13.85
2022-12-08T09:06:31.701Z,10.30
2022-12-08T09:09:01.934Z,14.18
2022-12-08T09:11:31.058Z,5.97
2022-12-08T09:14:00.503Z,18.73
2022-12-08T09:16:30.221Z,13.63
2022-12-08T09:19:00.413Z,20.40
2022-12-08T09:21:29.989Z,30.73
2022-12-08T09:24:00.646Z,24.53
2022-12-08T09:26:30.735Z,21.83
2022-12-08T09:28:59.964Z,22.73
2022-12-08T09:31:31.187Z,18.17
2022-12-08T09:34:00.848Z,27.90
2022-12-08T09:36:30.659Z,14.10
2022-12-08T09:39:03.077Z,31.67
2022-12-08T09:41:48.421Z,16.37
2022-12-08T09:44:36.816Z,23.52
2022-12-08T09:47:07.631Z,21.50
2022-12-08T09:49:48.201Z,24.67
2022-12-08T09:52:20.563Z,22.80
2022-12-08T09:54:49.989Z,32.53
2022-12-08T09:57:21.114Z,11.40
2022-12-08T09:59:53.753Z,24.87
2022-12-08T10:02:25.302Z,46.83
2022-12-08T10:04:56.092Z,23.63
2022-12-08T10:07:32.423Z,35.97
2022-12-08T10:10:05.332Z,31.70
2022-12-08T10:12:56.155Z,26.90
2022-12-08T10:15:36.349Z,20.37
2022-12-08T10:18:11.251Z,42.90
2022-12-08T10:20:42.748Z,21.00
2022-12-08T10:23:15.375Z,8.93
2022-12-08T10:25:49.385Z,21.07
2022-12-08T10:28:18.516Z,13.40
2022-12-08T10:30:48.008Z,15.03
2022-12-08T10:33:17.668Z,11.57
2022-12-08T10:35:49.925Z,18.47
2022-12-08T10:38:29.432Z,15.10
2022-12-08T10:41:06.357Z,25.90
2022-12-08T10:43:35.896Z,20.97
2022-12-08T10:46:15.271Z,13.97
2022-12-08T10:48:51.792Z,17.60
2022-12-08T10:51:30.761Z,20.13
2022-12-08T10:54:00.031Z,42.77
2022-12-08T10:56:30.254Z,35.40
2022-12-08T10:59:08.627Z,11.90
2022-12-08T11:01:39.099Z,11.33
2022-12-08T11:04:19.494Z,12.47
2022-12-08T11:06:48.986Z,13.30
2022-12-08T11:09:21.315Z,34.97
2022-12-08T11:11:59.313Z,14.90
2022-12-08T11:14:31.375Z,31.67
2022-12-08T11:17:10.181Z,27.70
2022-12-08T11:19:43.041Z,36.43
2022-12-08T11:22:31.030Z,12.87
2022-12-08T11:25:01.532Z,20.87
2022-12-08T11:27:30.858Z,15.30
2022-12-08T11:30:01.648Z,27.67
2022-12-08T11:32:30.640Z,43.83
2022-12-08T11:35:06.548Z,38.00
2022-12-08T11:37:43.258Z,41.75
2022-12-08T11:40:24.694Z,62.13
2022-12-08T11:42:56.747Z,32.67
2022-12-08T11:45:27.717Z,64.07
2022-12-08T11:48:14.677Z,130.87
2022-12-08T11:50:46.044Z,68.13
2022-12-08T11:53:38.828Z,51.47
2022-12-08T11:56:28.536Z,90.00
2022-12-08T11:58:58.337Z,52.33
2022-12-08T12:01:28.135Z,57.43
2022-12-08T12:04:15.598Z,53.97
2022-12-08T12:06:54.658Z,109.83
2022-12-08T12:09:29.665Z,136.50
2022-12-08T12:12:14.444Z,131.77
2022-12-08T12:14:49.425Z,130.73
2022-12-08T12:17:41.459Z,161.97
2022-12-08T12:20:32.491Z,131.17
2022-12-08T12:23:07.815Z,139.27
2022-12-08T12:25:38.230Z,103.07
2022-12-08T12:28:09.239Z,135.43
2022-12-08T12:31:02.875Z,98.97
2022-12-08T12:33:33.539Z,123.37
2022-12-08T12:36:09.289Z,139.43
2022-12-08T12:38:58.631Z,162.80
2022-12-08T12:41:45.241Z,162.47
2022-12-08T12:44:15.100Z,156.80
2022-12-08T12:46:51.111Z,211.33
2022-12-08T12:49:39.756Z,176.43
2022-12-08T12:52:22.314Z,157.57
2022-12-08T12:54:51.621Z,154.00
2022-12-08T12:57:21.371Z,98.30
2022-12-08T13:00:02.192Z,44.20
2022-12-08T13:02:33.656Z,56.87
2022-12-08T13:05:19.916Z,42.63
2022-12-08T13:07:52.957Z,23.00
2022-12-08T13:10:40.244Z,32.67
2022-12-08T13:13:13.201Z,49.55
2022-12-08T13:15:43.935Z,80.60
2022-12-08T13:18:37.444Z,67.47
2022-12-08T13:21:07.618Z,33.80
2022-12-08T13:23:40.220Z,40.23
2022-12-08T13:26:15.621Z,42.33
2022-12-08T13:29:04.770Z,46.25
2022-12-08T13:31:46.624Z,64.60
2022-12-08T13:34:22.017Z,35.57
2022-12-08T13:36:53.219Z,50.90
2022-12-08T13:39:34.201Z,44.77
2022-12-08T13:42:15.749Z,45.23
2022-12-08T13:48:05.987Z,46.97
2022-12-08T13:54:45.404Z,54.03
2022-12-08T13:59:26.539Z,17.90
2022-12-08T14:01:56.560Z,47.67
2022-12-08T14:07:15.889Z,59.37
2022-12-08T14:09:45.415Z,52.57
2022-12-08T14:12:22.581Z,39.20
2022-12-08T14:15:08.085Z,75.00
2022-12-08T14:17:37.609Z,53.90
2022-12-08T14:20:21.689Z,46.87
2022-12-08T14:22:51.530Z,48.60
2022-12-08T14:25:28.615Z,79.27
2022-12-08T14:28:02.009Z,32.53
2022-12-08T14:30:34.156Z,52.47
2022-12-08T14:33:04.495Z,20.83
2022-12-08T14:35:37.997Z,53.50
2022-12-08T14:38:10.224Z,52.90
2022-12-08T14:40:40.470Z,50.40
2022-12-08T14:43:09.990Z,32.43
2022-12-08T14:45:42.125Z,29.27
2022-12-08T14:48:33.425Z,37.73
2022-12-08T14:51:05.762Z,40.87
2022-12-08T14:53:40.369Z,56.60
2022-12-08T14:56:25.864Z,43.70
2022-12-08T14:59:04.382Z,48.83
2022-12-08T15:01:34.238Z,24.47
2022-12-08T15:04:16.184Z,46.73
2022-12-08T15:06:49.812Z,34.33
2022-12-08T15:09:19.613Z,30.27
2022-12-08T15:11:49.016Z,57.47
2022-12-08T15:14:50.566Z,18.63
2022-12-08T15:17:30.153Z,30.20
2022-12-08T15:19:59.946Z,27.27
2022-12-08T15:22:29.582Z,44.13
2022-12-08T15:24:58.814Z,37.73
2022-12-08T15:27:28.025Z,23.23
2022-12-08T15:29:57.539Z,25.30
2022-12-08T15:32:27.163Z,41.27
2022-12-08T15:34:56.824Z,62.00
2022-12-08T15:37:27.164Z,64.83
2022-12-08T15:39:56.679Z,27.60
2022-12-08T15:42:26.271Z,54.27
2022-12-08T15:44:55.486Z,56.57
2022-12-08T15:47:25.199Z,48.40
2022-12-08T15:49:55.062Z,41.17
2022-12-08T15:52:24.855Z,55.50
2022-12-08T15:54:55.438Z,40.57
2022-12-08T15:57:53.590Z,26.17
2022-12-08T16:00:51.854Z,35.43
2022-12-08T16:04:08.996Z,21.13
2022-12-08T16:09:14.661Z,32.27
2022-12-08T16:12:08.564Z,21.73
2022-12-08T16:17:29.194Z,26.37
2022-12-08T16:19:58.890Z,43.70
2022-12-08T16:22:52.733Z,30.43
2022-12-08T16:25:20.292Z,14.63
2022-12-08T16:28:01.228Z,31.33
2022-12-08T16:30:35.274Z,14.10
2022-12-08T16:33:04.885Z,36.20
2022-12-08T16:35:34.160Z,16.63
2022-12-08T16:38:03.315Z,42.10
2022-12-08T16:40:32.381Z,23.93
2022-12-08T16:43:02.003Z,30.73
2022-12-08T16:45:31.313Z,30.73
2022-12-08T16:48:07.843Z,43.17
2022-12-08T16:50:42.766Z,19.60
2022-12-08T16:53:13.380Z,45.13
2022-12-08T16:55:43.669Z,19.33
2022-12-08T16:58:17.727Z,19.63
2022-12-08T17:00:47.695Z,28.67
2022-12-08T17:03:17.719Z,39.00
2022-12-08T17:05:47.119Z,26.07
2022-12-08T17:08:16.535Z,18.73
2022-12-08T17:11:06.049Z,17.13
2022-12-08T17:13:39.043Z,8.87
2022-12-08T17:16:11.992Z,35.33
2022-12-08T17:18:41.405Z,34.13
2022-12-08T17:21:12.585Z,21.13
2022-12-08T17:23:42.783Z,15.43
2022-12-08T17:26:12.067Z,15.47
2022-12-08T17:28:59.971Z,24.17
2022-12-08T17:31:31.469Z,23.63
2022-12-08T17:34:04.966Z,6.87
2022-12-08T17:36:35.168Z,9.53
2022-12-08T17:39:04.307Z,8.83
2022-12-08T17:41:33.766Z,7.23
2022-12-08T17:44:03.279Z,18.83
2022-12-08T17:46:36.926Z,11.73
2022-12-08T17:49:12.991Z,14.23
2022-12-08T17:51:42.192Z,12.83
2022-12-08T17:54:11.592Z,14.93
2022-12-08T17:56:42.307Z,8.47
2022-12-08T17:59:11.586Z,15.13
2022-12-08T18:01:40.740Z,28.73
2022-12-08T18:04:09.987Z,10.43
2022-12-08T18:06:39.672Z,7.27
2022-12-08T18:09:09.382Z,3.30
2022-12-08T18:11:38.394Z,21.77
2022-12-08T18:14:10.706Z,11.67
2022-12-08T18:16:40.350Z,5.53
2022-12-08T18:19:09.542Z,14.77
2022-12-08T18:21:40.503Z,34.93
2022-12-08T18:24:10.040Z,18.33
2022-12-08T18:26:39.508Z,13.63
2022-12-08T18:29:09.166Z,20.27
2022-12-08T18:31:40.318Z,45.50
2022-12-08T18:34:09.385Z,25.27
2022-12-08T18:36:38.881Z,21.27
2022-12-08T18:39:10.981Z,20.67
2022-12-08T18:41:43.146Z,20.00
2022-12-08T18:44:12.668Z,41.17
2022-12-08T18:46:42.118Z,14.60
2022-12-08T18:49:14.412Z,12.87
2022-12-08T18:51:44.444Z,28.60
2022-12-08T18:54:14.063Z,5.10
2022-12-08T18:56:43.622Z,26.10
2022-12-08T18:59:14.604Z,35.57
2022-12-08T19:01:43.779Z,3.37
2022-12-08T19:04:29.273Z,6.50
2022-12-08T19:06:58.743Z,3.70
2022-12-08T19:09:29.497Z,5.10
2022-12-08T19:11:58.619Z,6.10
2022-12-08T19:14:28.836Z,13.27
2022-12-08T19:16:59.087Z,7.00
2022-12-08T19:19:28.523Z,17.90
2022-12-08T19:21:57.574Z,10.87
2022-12-08T19:24:27.026Z,18.53
2022-12-08T19:26:56.564Z,16.67
2022-12-08T19:29:26.425Z,10.10
2022-12-08T19:31:56.095Z,8.90
2022-12-08T19:34:25.682Z,24.37
2022-12-08T19:36:54.836Z,23.57
2022-12-08T19:39:43.466Z,12.80
2022-12-08T19:42:35.241Z,12.33
2022-12-08T19:45:07.308Z,17.57
2022-12-08T19:47:36.761Z,25.47
2022-12-08T19:50:24.544Z,11.30
2022-12-08T19:52:54.620Z,6.47
2022-12-08T19:55:24.401Z,15.37
2022-12-08T19:57:54.140Z,22.60
2022-12-08T20:00:26.437Z,12.13
2022-12-08T20:02:59.625Z,15.83
2022-12-08T20:05:30.038Z,4.33
2022-12-08T20:07:59.571Z,6.03
2022-12-08T20:10:34.236Z,14.60
2022-12-08T20:13:22.593Z,6.63
2022-12-08T20:15:51.870Z,6.67
2022-12-08T20:18:21.434Z,18.97
2022-12-08T20:20:51.080Z,8.67
2022-12-08T20:23:20.162Z,24.80
2022-12-08T20:25:49.276Z,23.70
2022-12-08T20:28:20.080Z,15.03
2022-12-08T20:30:50.292Z,16.97
2022-12-08T20:33:19.983Z,20.20
2022-12-08T20:35:50.822Z,11.57
2022-12-08T20:38:22.771Z,3.83
2022-12-08T20:40:52.377Z,23.00
2022-12-08T20:43:21.675Z,1.13
2022-12-08T20:45:50.597Z,11.80
2022-12-08T20:48:22.756Z,6.93
2022-12-08T20:50:53.174Z,1.33
2022-12-08T20:53:22.788Z,2.90
2022-12-08T20:55:51.880Z,7.40
2022-12-08T20:58:20.982Z,2.13
2022-12-08T21:00:50.652Z,4.80
2022-12-08T21:03:20.387Z,5.67
2022-12-08T21:05:53.525Z,10.13
2022-12-08T21:08:25.899Z,8.97
2022-12-08T21:10:56.074Z,10.53
2022-12-08T21:13:25.641Z,9.83
2022-12-08T21:15:55.199Z,4.97
2022-12-08T21:18:25.122Z,4.93
2022-12-08T21:20:54.686Z,11.00
2022-12-08T21:23:26.975Z,11.30
2022-12-08T21:25:56.237Z,18.30
2022-12-08T21:28:25.278Z,12.00
2022-12-08T21:30:54.633Z,4.03
2022-12-08T21:33:23.911Z,18.43
2022-12-08T21:36:02.824Z,7.93
2022-12-08T21:38:32.724Z,15.93
2022-12-08T21:41:06.320Z,9.03
2022-12-08T21:43:36.340Z,3.87
2022-12-08T21:46:05.954Z,6.73
2022-12-08T21:48:39.280Z,19.50
2022-12-08T21:51:09.927Z,12.43
2022-12-08T21:53:39.874Z,6.27
2022-12-08T21:56:27.827Z,8.37
2022-12-08T21:58:57.434Z,26.60
2022-12-08T22:01:26.636Z,15.20
2022-12-08T22:03:56.752Z,6.33
2022-12-08T22:06:26.386Z,1.90
2022-12-08T22:08:58.759Z,7.13
2022-12-08T22:11:28.304Z,8.10
2022-12-08T22:13:58.992Z,3.47
2022-12-08T22:16:28.516Z,14.17
2022-12-08T22:18:57.917Z,19.03
2022-12-08T22:21:27.511Z,7.43
2022-12-08T22:23:59.105Z,15.90
2022-12-08T22:26:29.434Z,5.40
2022-12-08T22:28:59.201Z,8.67
2022-12-08T22:31:29.086Z,5.53
2022-12-08T22:33:58.838Z,15.07
2022-12-08T22:36:28.958Z,6.93
2022-12-08T22:38:58.706Z,14.50
2022-12-08T22:41:28.500Z,10.87
2022-12-08T22:43:58.169Z,1.03
2022-12-08T22:46:28.107Z,2.47
2022-12-08T22:48:57.888Z,14.47
2022-12-08T22:51:27.512Z,5.17
2022-12-08T22:53:57.383Z,12.27
2022-12-08T22:56:26.878Z,11.43
2022-12-08T22:58:56.487Z,2.77
2022-12-08T23:01:27.228Z,9.37
2022-12-08T23:03:58.217Z,10.60
2022-12-08T23:06:28.083Z,9.33
2022-12-08T23:08:58.059Z,13.70
2022-12-08T23:11:29.778Z,15.77
2022-12-08T23:14:01.544Z,6.17
2022-12-08T23:16:31.174Z,3.13
2022-12-08T23:19:00.984Z,24.30
2022-12-08T23:21:30.613Z,7.47
2022-12-08T23:24:02.570Z,17.23
2022-12-08T23:26:33.113Z,11.33
2022-12-08T23:29:02.764Z,14.50
2022-12-08T23:31:31.951Z,6.30
2022-12-08T23:34:01.500Z,40.07
2022-12-08T23:36:31.144Z,21.50
2022-12-08T23:39:00.309Z,9.57
2022-12-08T23:41:29.438Z,35.23
2022-12-08T23:43:59.031Z,26.77
2022-12-08T23:46:28.702Z,50.17
2022-12-08T23:48:58.132Z,14.77
2022-12-08T23:51:27.540Z,42.83
2022-12-08T23:53:56.677Z,30.37
2022-12-08T23:56:30.202Z,10.23
2022-12-08T23:59:00.290Z,40.33
